sensor_id;sensor_type;location;lat;lon;timestamp;temperature;humidity
9943;DHT22;5010;45.080;7.634;2023-04-02T00:01:23;20.50;1.00
9943;DHT22;5010;45.080;7.634;2023-04-02T00:04:19;20.50;1.00
9943;DHT22;5010;45.080;7.634;2023-04-02T00:06:53;20.50;1.00
9943;DHT22;5010;45.080;7.634;2023-04-02T00:09:23;20.50;1.00
9943;DHT22;5010;45.080;7.634;2023-04-02T00:11:53;20.50;1.00
9943;DHT22;5010;45.080;7.634;2023-04-02T00:14:25;20.50;1.00
9943;DHT22;5010;45.080;7.634;2023-04-02T00:16:54;20.50;1.00
9943;DHT22;5010;45.080;7.634;2023-04-02T00:19:27;20.50;1.00
9943;DHT22;5010;45.080;7.634;2023-04-02T00:21:56;20.50;1.00
9943;DHT22;5010;45.080;7.634;2023-04-02T00:24:23;20.50;1.00
9943;DHT22;5010;45.080;7.634;2023-04-02T00:26:52;20.50;1.00
9943;DHT22;5010;45.080;7.634;2023-04-02T00:29:19;20.50;1.00
9943;DHT22;5010;45.080;7.634;2023-04-02T00:31:48;20.50;1.00
9943;DHT22;5010;45.080;7.634;2023-04-02T00:34:18;20.50;1.00
9943;DHT22;5010;45.080;7.634;2023-04-02T00:36:46;20.50;1.00
9943;DHT22;5010;45.080;7.634;2023-04-02T00:39:20;20.50;1.00
9943;DHT22;5010;45.080;7.634;2023-04-02T00:41:48;20.50;1.00
9943;DHT22;5010;45.080;7.634;2023-04-02T00:44:31;20.50;1.00
9943;DHT22;5010;45.080;7.634;2023-04-02T00:47:03;20.50;1.00
9943;DHT22;5010;45.080;7.634;2023-04-02T00:49:35;20.50;1.00
9943;DHT22;5010;45.080;7.634;2023-04-02T00:52:05;20.50;1.00
9943;DHT22;5010;45.080;7.634;2023-04-02T00:54:44;20.50;1.00
9943;DHT22;5010;45.080;7.634;2023-04-02T00:57:15;20.50;1.00
9943;DHT22;5010;45.080;7.634;2023-04-02T00:59:50;20.50;1.00
9943;DHT22;5010;45.080;7.634;2023-04-02T01:02:25;20.50;1.00
9943;DHT22;5010;45.080;7.634;2023-04-02T01:04:53;20.50;1.00
9943;DHT22;5010;45.080;7.634;2023-04-02T01:07:34;20.50;1.00
9943;DHT22;5010;45.080;7.634;2023-04-02T01:13:06;20.50;1.00
9943;DHT22;5010;45.080;7.634;2023-04-02T01:15:38;20.50;1.00
9943;DHT22;5010;45.080;7.634;2023-04-02T01:18:18;20.50;1.00
9943;DHT22;5010;45.080;7.634;2023-04-02T01:21:16;20.50;1.00
9943;DHT22;5010;45.080;7.634;2023-04-02T01:23:53;20.50;1.00
9943;DHT22;5010;45.080;7.634;2023-04-02T01:26:34;20.50;1.00
9943;DHT22;5010;45.080;7.634;2023-04-02T01:29:08;20.50;1.00
9943;DHT22;5010;45.080;7.634;2023-04-02T01:31:37;20.50;1.00
9943;DHT22;5010;45.080;7.634;2023-04-02T01:34:06;20.40;1.00
9943;DHT22;5010;45.080;7.634;2023-04-02T01:36:40;20.50;1.00
9943;DHT22;5010;45.080;7.634;2023-04-02T01:39:17;20.50;1.00
9943;DHT22;5010;45.080;7.634;2023-04-02T01:41:48;20.50;1.00
9943;DHT22;5010;45.080;7.634;2023-04-02T01:44:24;20.50;1.00
9943;DHT22;5010;45.080;7.634;2023-04-02T01:46:53;20.50;1.00
9943;DHT22;5010;45.080;7.634;2023-04-02T01:49:23;20.40;1.00
9943;DHT22;5010;45.080;7.634;2023-04-02T01:51:53;20.50;1.00
9943;DHT22;5010;45.080;7.634;2023-04-02T01:54:22;20.50;1.00
9943;DHT22;5010;45.080;7.634;2023-04-02T01:56:50;20.40;1.00
9943;DHT22;5010;45.080;7.634;2023-04-02T01:59:19;20.50;1.00
9943;DHT22;5010;45.080;7.634;2023-04-02T02:01:51;20.50;1.00
9943;DHT22;5010;45.080;7.634;2023-04-02T02:04:19;20.50;1.00
9943;DHT22;5010;45.080;7.634;2023-04-02T02:06:47;20.50;1.00
9943;DHT22;5010;45.080;7.634;2023-04-02T02:09:16;20.40;1.00
9943;DHT22;5010;45.080;7.634;2023-04-02T02:11:47;20.50;1.00
9943;DHT22;5010;45.080;7.634;2023-04-02T02:14:17;20.50;1.00
9943;DHT22;5010;45.080;7.634;2023-04-02T02:16:45;20.50;1.00
9943;DHT22;5010;45.080;7.634;2023-04-02T02:19:21;20.40;1.00
9943;DHT22;5010;45.080;7.634;2023-04-02T02:21:51;20.40;1.00
9943;DHT22;5010;45.080;7.634;2023-04-02T02:24:20;20.50;1.00
9943;DHT22;5010;45.080;7.634;2023-04-02T02:26:54;20.40;1.00
9943;DHT22;5010;45.080;7.634;2023-04-02T02:29:25;20.50;1.00
9943;DHT22;5010;45.080;7.634;2023-04-02T02:31:54;20.40;1.00
9943;DHT22;5010;45.080;7.634;2023-04-02T02:34:28;20.40;1.00
9943;DHT22;5010;45.080;7.634;2023-04-02T02:37:03;20.40;1.00
9943;DHT22;5010;45.080;7.634;2023-04-02T02:39:33;20.40;1.00
9943;DHT22;5010;45.080;7.634;2023-04-02T02:42:09;20.40;1.00
9943;DHT22;5010;45.080;7.634;2023-04-02T02:44:40;20.40;1.00
9943;DHT22;5010;45.080;7.634;2023-04-02T02:47:12;20.40;1.00
9943;DHT22;5010;45.080;7.634;2023-04-02T02:49:43;20.40;1.00
9943;DHT22;5010;45.080;7.634;2023-04-02T02:52:14;20.40;1.00
9943;DHT22;5010;45.080;7.634;2023-04-02T02:54:45;20.40;1.00
9943;DHT22;5010;45.080;7.634;2023-04-02T02:57:17;20.40;1.00
9943;DHT22;5010;45.080;7.634;2023-04-02T02:59:46;20.40;1.00
9943;DHT22;5010;45.080;7.634;2023-04-02T03:02:14;20.40;1.00
9943;DHT22;5010;45.080;7.634;2023-04-02T03:04:46;20.40;1.00
9943;DHT22;5010;45.080;7.634;2023-04-02T03:07:15;20.40;1.00
9943;DHT22;5010;45.080;7.634;2023-04-02T03:09:48;20.40;1.00
9943;DHT22;5010;45.080;7.634;2023-04-02T03:12:31;20.40;1.00
9943;DHT22;5010;45.080;7.634;2023-04-02T03:15:04;20.40;1.00
9943;DHT22;5010;45.080;7.634;2023-04-02T03:17:37;20.40;1.00
9943;DHT22;5010;45.080;7.634;2023-04-02T03:20:14;20.40;1.00
9943;DHT22;5010;45.080;7.634;2023-04-02T03:22:48;20.40;1.00
9943;DHT22;5010;45.080;7.634;2023-04-02T03:25:24;20.40;1.00
9943;DHT22;5010;45.080;7.634;2023-04-02T03:27:56;20.40;1.00
9943;DHT22;5010;45.080;7.634;2023-04-02T03:30:32;20.40;1.00
9943;DHT22;5010;45.080;7.634;2023-04-02T03:33:02;20.40;1.00
9943;DHT22;5010;45.080;7.634;2023-04-02T03:35:34;20.40;1.00
9943;DHT22;5010;45.080;7.634;2023-04-02T03:38:06;20.40;1.00
9943;DHT22;5010;45.080;7.634;2023-04-02T03:40:39;20.40;1.00
9943;DHT22;5010;45.080;7.634;2023-04-02T03:43:15;20.40;1.00
9943;DHT22;5010;45.080;7.634;2023-04-02T03:45:48;20.40;1.00
9943;DHT22;5010;45.080;7.634;2023-04-02T03:48:21;20.40;1.00
9943;DHT22;5010;45.080;7.634;2023-04-02T03:50:55;20.40;1.00
9943;DHT22;5010;45.080;7.634;2023-04-02T03:53:25;20.40;1.00
9943;DHT22;5010;45.080;7.634;2023-04-02T03:55:54;20.40;1.00
9943;DHT22;5010;45.080;7.634;2023-04-02T03:58:26;20.40;1.00
9943;DHT22;5010;45.080;7.634;2023-04-02T04:00:58;20.40;1.00
9943;DHT22;5010;45.080;7.634;2023-04-02T04:03:31;20.40;1.00
9943;DHT22;5010;45.080;7.634;2023-04-02T04:06:08;20.40;1.00
9943;DHT22;5010;45.080;7.634;2023-04-02T04:08:41;20.40;1.00
9943;DHT22;5010;45.080;7.634;2023-04-02T04:11:13;20.40;1.00
9943;DHT22;5010;45.080;7.634;2023-04-02T04:13:45;20.40;1.00
9943;DHT22;5010;45.080;7.634;2023-04-02T04:16:15;20.40;1.00
9943;DHT22;5010;45.080;7.634;2023-04-02T04:18:46;20.40;1.00
9943;DHT22;5010;45.080;7.634;2023-04-02T04:21:20;20.40;1.00
9943;DHT22;5010;45.080;7.634;2023-04-02T04:23:55;20.40;1.00
9943;DHT22;5010;45.080;7.634;2023-04-02T04:26:27;20.40;1.00
9943;DHT22;5010;45.080;7.634;2023-04-02T04:29:03;20.40;1.00
9943;DHT22;5010;45.080;7.634;2023-04-02T04:31:37;20.40;1.00
9943;DHT22;5010;45.080;7.634;2023-04-02T04:34:09;20.40;1.00
9943;DHT22;5010;45.080;7.634;2023-04-02T04:36:43;20.40;1.00
9943;DHT22;5010;45.080;7.634;2023-04-02T04:39:17;20.40;1.00
9943;DHT22;5010;45.080;7.634;2023-04-02T04:41:49;20.30;1.00
9943;DHT22;5010;45.080;7.634;2023-04-02T04:44:20;20.40;1.00
9943;DHT22;5010;45.080;7.634;2023-04-02T04:46:51;20.30;1.00
9943;DHT22;5010;45.080;7.634;2023-04-02T04:49:25;20.30;1.00
9943;DHT22;5010;45.080;7.634;2023-04-02T04:51:57;20.30;1.00
9943;DHT22;5010;45.080;7.634;2023-04-02T04:54:26;20.30;1.00
9943;DHT22;5010;45.080;7.634;2023-04-02T04:56:58;20.40;1.00
9943;DHT22;5010;45.080;7.634;2023-04-02T04:59:28;20.30;1.00
9943;DHT22;5010;45.080;7.634;2023-04-02T05:02:00;20.30;1.00
9943;DHT22;5010;45.080;7.634;2023-04-02T05:04:32;20.30;1.00
9943;DHT22;5010;45.080;7.634;2023-04-02T05:07:05;20.30;1.00
9943;DHT22;5010;45.080;7.634;2023-04-02T05:09:37;20.30;1.00
9943;DHT22;5010;45.080;7.634;2023-04-02T05:12:10;20.30;1.00
9943;DHT22;5010;45.080;7.634;2023-04-02T05:14:42;20.30;1.00
9943;DHT22;5010;45.080;7.634;2023-04-02T05:17:16;20.30;1.00
9943;DHT22;5010;45.080;7.634;2023-04-02T05:19:47;20.30;1.00
9943;DHT22;5010;45.080;7.634;2023-04-02T05:22:25;20.30;1.00
9943;DHT22;5010;45.080;7.634;2023-04-02T05:24:59;20.30;1.00
9943;DHT22;5010;45.080;7.634;2023-04-02T05:27:35;20.30;1.00
9943;DHT22;5010;45.080;7.634;2023-04-02T05:30:11;20.30;1.00
9943;DHT22;5010;45.080;7.634;2023-04-02T05:32:42;20.30;1.00
9943;DHT22;5010;45.080;7.634;2023-04-02T05:35:17;20.30;1.00
9943;DHT22;5010;45.080;7.634;2023-04-02T05:37:46;20.30;1.00
9943;DHT22;5010;45.080;7.634;2023-04-02T05:40:20;20.30;1.00
9943;DHT22;5010;45.080;7.634;2023-04-02T05:42:49;20.30;1.00
9943;DHT22;5010;45.080;7.634;2023-04-02T05:45:25;20.30;1.00
9943;DHT22;5010;45.080;7.634;2023-04-02T05:47:56;20.30;1.00
9943;DHT22;5010;45.080;7.634;2023-04-02T05:50:27;20.30;1.00
9943;DHT22;5010;45.080;7.634;2023-04-02T05:53:02;20.30;1.00
9943;DHT22;5010;45.080;7.634;2023-04-02T05:55:40;20.30;1.00
9943;DHT22;5010;45.080;7.634;2023-04-02T05:58:20;20.30;1.00
9943;DHT22;5010;45.080;7.634;2023-04-02T06:00:56;20.30;1.00
9943;DHT22;5010;45.080;7.634;2023-04-02T06:03:27;20.30;1.00
9943;DHT22;5010;45.080;7.634;2023-04-02T06:06:00;20.30;1.00
9943;DHT22;5010;45.080;7.634;2023-04-02T06:08:33;20.30;1.00
9943;DHT22;5010;45.080;7.634;2023-04-02T06:11:07;20.30;1.00
9943;DHT22;5010;45.080;7.634;2023-04-02T06:13:35;20.30;1.00
9943;DHT22;5010;45.080;7.634;2023-04-02T06:16:02;20.30;1.00
9943;DHT22;5010;45.080;7.634;2023-04-02T06:18:30;20.30;1.00
9943;DHT22;5010;45.080;7.634;2023-04-02T06:20:59;20.30;1.00
9943;DHT22;5010;45.080;7.634;2023-04-02T06:23:30;20.30;1.00
9943;DHT22;5010;45.080;7.634;2023-04-02T06:26:02;20.30;1.00
9943;DHT22;5010;45.080;7.634;2023-04-02T06:28:35;20.30;1.00
9943;DHT22;5010;45.080;7.634;2023-04-02T06:31:08;20.30;1.00
9943;DHT22;5010;45.080;7.634;2023-04-02T06:33:36;20.30;1.00
9943;DHT22;5010;45.080;7.634;2023-04-02T06:36:03;20.30;1.00
9943;DHT22;5010;45.080;7.634;2023-04-02T06:38:33;20.20;1.00
9943;DHT22;5010;45.080;7.634;2023-04-02T06:41:07;20.30;1.00
9943;DHT22;5010;45.080;7.634;2023-04-02T06:43:41;20.30;1.00
9943;DHT22;5010;45.080;7.634;2023-04-02T06:46:13;20.30;1.00
9943;DHT22;5010;45.080;7.634;2023-04-02T06:48:41;20.30;1.00
9943;DHT22;5010;45.080;7.634;2023-04-02T06:51:11;20.30;1.00
9943;DHT22;5010;45.080;7.634;2023-04-02T06:53:43;20.30;1.00
9943;DHT22;5010;45.080;7.634;2023-04-02T06:56:21;20.30;1.00
9943;DHT22;5010;45.080;7.634;2023-04-02T06:58:50;20.30;1.00
9943;DHT22;5010;45.080;7.634;2023-04-02T07:01:21;20.20;1.00
9943;DHT22;5010;45.080;7.634;2023-04-02T07:03:49;20.30;1.00
9943;DHT22;5010;45.080;7.634;2023-04-02T07:06:18;20.30;1.00
9943;DHT22;5010;45.080;7.634;2023-04-02T07:08:45;20.30;1.00
9943;DHT22;5010;45.080;7.634;2023-04-02T07:11:15;20.30;1.00
9943;DHT22;5010;45.080;7.634;2023-04-02T07:13:43;20.30;1.00
9943;DHT22;5010;45.080;7.634;2023-04-02T07:16:14;20.30;1.00
9943;DHT22;5010;45.080;7.634;2023-04-02T07:18:42;20.30;1.00
9943;DHT22;5010;45.080;7.634;2023-04-02T07:21:09;20.30;1.00
9943;DHT22;5010;45.080;7.634;2023-04-02T07:23:36;20.30;1.00
9943;DHT22;5010;45.080;7.634;2023-04-02T07:26:04;20.30;1.00
9943;DHT22;5010;45.080;7.634;2023-04-02T07:28:32;20.30;1.00
9943;DHT22;5010;45.080;7.634;2023-04-02T07:31:00;20.30;1.00
9943;DHT22;5010;45.080;7.634;2023-04-02T07:33:29;20.40;1.00
9943;DHT22;5010;45.080;7.634;2023-04-02T07:35:56;20.40;1.00
9943;DHT22;5010;45.080;7.634;2023-04-02T07:38:23;20.40;1.00
9943;DHT22;5010;45.080;7.634;2023-04-02T07:40:50;20.40;1.00
9943;DHT22;5010;45.080;7.634;2023-04-02T07:43:17;20.40;1.00
9943;DHT22;5010;45.080;7.634;2023-04-02T07:45:46;20.40;1.00
9943;DHT22;5010;45.080;7.634;2023-04-02T07:48:13;20.40;1.00
9943;DHT22;5010;45.080;7.634;2023-04-02T07:50:40;20.40;1.00
9943;DHT22;5010;45.080;7.634;2023-04-02T07:53:23;20.40;1.00
9943;DHT22;5010;45.080;7.634;2023-04-02T07:55:51;20.50;1.00
9943;DHT22;5010;45.080;7.634;2023-04-02T07:58:18;20.50;1.00
9943;DHT22;5010;45.080;7.634;2023-04-02T08:00:46;20.50;1.00
9943;DHT22;5010;45.080;7.634;2023-04-02T08:03:13;20.50;1.00
9943;DHT22;5010;45.080;7.634;2023-04-02T08:05:40;20.50;1.00
9943;DHT22;5010;45.080;7.634;2023-04-02T08:08:08;20.50;1.00
9943;DHT22;5010;45.080;7.634;2023-04-02T08:10:34;20.50;1.00
9943;DHT22;5010;45.080;7.634;2023-04-02T08:13:01;20.50;1.00
9943;DHT22;5010;45.080;7.634;2023-04-02T08:15:28;20.50;1.00
9943;DHT22;5010;45.080;7.634;2023-04-02T08:17:56;20.60;1.00
9943;DHT22;5010;45.080;7.634;2023-04-02T08:20:23;20.60;1.00
9943;DHT22;5010;45.080;7.634;2023-04-02T08:22:50;20.60;1.00
9943;DHT22;5010;45.080;7.634;2023-04-02T08:25:17;20.60;1.00
9943;DHT22;5010;45.080;7.634;2023-04-02T08:27:45;20.60;1.00
9943;DHT22;5010;45.080;7.634;2023-04-02T08:30:13;20.60;1.00
9943;DHT22;5010;45.080;7.634;2023-04-02T08:32:40;20.60;1.00
9943;DHT22;5010;45.080;7.634;2023-04-02T08:35:10;20.70;1.00
9943;DHT22;5010;45.080;7.634;2023-04-02T08:37:37;20.70;1.00
9943;DHT22;5010;45.080;7.634;2023-04-02T08:40:06;20.70;1.00
9943;DHT22;5010;45.080;7.634;2023-04-02T08:42:38;20.70;1.00
9943;DHT22;5010;45.080;7.634;2023-04-02T08:45:18;20.70;1.00
9943;DHT22;5010;45.080;7.634;2023-04-02T08:47:48;20.70;1.00
9943;DHT22;5010;45.080;7.634;2023-04-02T08:50:27;20.70;1.00
9943;DHT22;5010;45.080;7.634;2023-04-02T08:52:58;20.80;1.00
9943;DHT22;5010;45.080;7.634;2023-04-02T08:55:33;20.70;1.00
9943;DHT22;5010;45.080;7.634;2023-04-02T08:58:05;20.70;1.00
9943;DHT22;5010;45.080;7.634;2023-04-02T09:00:38;20.80;1.00
9943;DHT22;5010;45.080;7.634;2023-04-02T09:03:07;20.80;1.00
9943;DHT22;5010;45.080;7.634;2023-04-02T09:05:39;20.80;1.00
9943;DHT22;5010;45.080;7.634;2023-04-02T09:08:15;20.80;1.00
9943;DHT22;5010;45.080;7.634;2023-04-02T09:10:48;20.70;1.00
9943;DHT22;5010;45.080;7.634;2023-04-02T09:13:21;20.70;1.00
9943;DHT22;5010;45.080;7.634;2023-04-02T09:15:52;20.70;1.00
9943;DHT22;5010;45.080;7.634;2023-04-02T09:18:21;20.70;1.00
9943;DHT22;5010;45.080;7.634;2023-04-02T09:20:49;20.70;1.00
9943;DHT22;5010;45.080;7.634;2023-04-02T09:23:18;20.70;1.00
9943;DHT22;5010;45.080;7.634;2023-04-02T09:25:49;20.70;1.00
9943;DHT22;5010;45.080;7.634;2023-04-02T09:28:17;20.70;1.00
9943;DHT22;5010;45.080;7.634;2023-04-02T09:30:58;20.70;1.00
9943;DHT22;5010;45.080;7.634;2023-04-02T09:33:43;20.70;1.00
9943;DHT22;5010;45.080;7.634;2023-04-02T09:36:26;20.70;1.00
9943;DHT22;5010;45.080;7.634;2023-04-02T09:38:59;20.70;1.00
9943;DHT22;5010;45.080;7.634;2023-04-02T09:41:28;20.70;1.00
9943;DHT22;5010;45.080;7.634;2023-04-02T09:44:12;20.70;1.00
9943;DHT22;5010;45.080;7.634;2023-04-02T09:46:47;20.70;1.00
9943;DHT22;5010;45.080;7.634;2023-04-02T09:49:16;20.70;1.00
9943;DHT22;5010;45.080;7.634;2023-04-02T09:51:45;20.70;1.00
9943;DHT22;5010;45.080;7.634;2023-04-02T09:54:31;20.70;1.00
9943;DHT22;5010;45.080;7.634;2023-04-02T09:56:59;20.70;1.00
9943;DHT22;5010;45.080;7.634;2023-04-02T09:59:27;20.70;1.00
9943;DHT22;5010;45.080;7.634;2023-04-02T10:01:58;20.70;1.00
9943;DHT22;5010;45.080;7.634;2023-04-02T10:04:40;20.70;1.00
9943;DHT22;5010;45.080;7.634;2023-04-02T10:07:30;20.70;1.00
9943;DHT22;5010;45.080;7.634;2023-04-02T10:09:58;20.70;1.00
9943;DHT22;5010;45.080;7.634;2023-04-02T10:12:26;20.70;1.00
9943;DHT22;5010;45.080;7.634;2023-04-02T10:14:57;20.70;1.00
9943;DHT22;5010;45.080;7.634;2023-04-02T10:17:28;20.70;1.00
9943;DHT22;5010;45.080;7.634;2023-04-02T10:19:59;20.70;1.00
9943;DHT22;5010;45.080;7.634;2023-04-02T10:22:32;20.70;1.00
9943;DHT22;5010;45.080;7.634;2023-04-02T10:24:59;20.80;1.00
9943;DHT22;5010;45.080;7.634;2023-04-02T10:27:31;20.70;1.00
9943;DHT22;5010;45.080;7.634;2023-04-02T10:30:10;20.80;1.00
9943;DHT22;5010;45.080;7.634;2023-04-02T10:32:45;20.80;1.00
9943;DHT22;5010;45.080;7.634;2023-04-02T10:35:19;20.80;1.00
9943;DHT22;5010;45.080;7.634;2023-04-02T10:38:18;20.80;1.00
9943;DHT22;5010;45.080;7.634;2023-04-02T10:40:53;20.80;1.00
9943;DHT22;5010;45.080;7.634;2023-04-02T10:43:42;20.80;1.00
9943;DHT22;5010;45.080;7.634;2023-04-02T10:46:18;20.80;1.00
9943;DHT22;5010;45.080;7.634;2023-04-02T10:48:50;20.80;1.00
9943;DHT22;5010;45.080;7.634;2023-04-02T10:51:28;20.90;1.00
9943;DHT22;5010;45.080;7.634;2023-04-02T10:54:09;20.90;1.00
9943;DHT22;5010;45.080;7.634;2023-04-02T10:56:40;20.90;1.00
9943;DHT22;5010;45.080;7.634;2023-04-02T10:59:14;20.90;1.00
9943;DHT22;5010;45.080;7.634;2023-04-02T11:01:45;20.90;1.00
9943;DHT22;5010;45.080;7.634;2023-04-02T11:04:17;20.90;1.00
9943;DHT22;5010;45.080;7.634;2023-04-02T11:06:49;20.90;1.00
9943;DHT22;5010;45.080;7.634;2023-04-02T11:09:20;20.90;1.00
9943;DHT22;5010;45.080;7.634;2023-04-02T11:11:51;20.90;1.00
9943;DHT22;5010;45.080;7.634;2023-04-02T11:14:22;21.00;1.00
9943;DHT22;5010;45.080;7.634;2023-04-02T11:16:51;21.00;1.00
9943;DHT22;5010;45.080;7.634;2023-04-02T11:19:25;21.10;1.00
9943;DHT22;5010;45.080;7.634;2023-04-02T11:21:53;21.10;1.00
9943;DHT22;5010;45.080;7.634;2023-04-02T11:24:35;21.10;1.00
9943;DHT22;5010;45.080;7.634;2023-04-02T11:27:10;21.10;1.00
9943;DHT22;5010;45.080;7.634;2023-04-02T11:29:41;21.10;1.00
9943;DHT22;5010;45.080;7.634;2023-04-02T11:32:33;21.10;1.00
9943;DHT22;5010;45.080;7.634;2023-04-02T11:37:46;21.10;1.00
9943;DHT22;5010;45.080;7.634;2023-04-02T11:40:42;21.20;1.00
9943;DHT22;5010;45.080;7.634;2023-04-02T11:43:50;21.30;1.00
9943;DHT22;5010;45.080;7.634;2023-04-02T11:46:42;21.30;1.00
9943;DHT22;5010;45.080;7.634;2023-04-02T11:49:33;21.30;1.00
9943;DHT22;5010;45.080;7.634;2023-04-02T11:52:02;21.40;1.00
9943;DHT22;5010;45.080;7.634;2023-04-02T11:54:33;21.40;1.00
9943;DHT22;5010;45.080;7.634;2023-04-02T11:57:14;21.50;1.00
9943;DHT22;5010;45.080;7.634;2023-04-02T11:59:54;21.50;1.00
9943;DHT22;5010;45.080;7.634;2023-04-02T12:02:28;21.60;1.00
9943;DHT22;5010;45.080;7.634;2023-04-02T12:05:13;21.60;1.00
9943;DHT22;5010;45.080;7.634;2023-04-02T12:10:33;21.70;1.00
9943;DHT22;5010;45.080;7.634;2023-04-02T12:13:18;21.70;1.00
9943;DHT22;5010;45.080;7.634;2023-04-02T12:15:46;21.80;1.00
9943;DHT22;5010;45.080;7.634;2023-04-02T12:18:16;21.80;1.00
9943;DHT22;5010;45.080;7.634;2023-04-02T12:20:49;21.80;1.00
9943;DHT22;5010;45.080;7.634;2023-04-02T12:23:18;21.90;1.00
9943;DHT22;5010;45.080;7.634;2023-04-02T12:25:54;21.90;1.00
9943;DHT22;5010;45.080;7.634;2023-04-02T12:28:22;21.90;1.00
9943;DHT22;5010;45.080;7.634;2023-04-02T12:30:50;22.00;1.00
9943;DHT22;5010;45.080;7.634;2023-04-02T12:33:29;22.00;1.00
9943;DHT22;5010;45.080;7.634;2023-04-02T12:36:00;22.10;1.00
9943;DHT22;5010;45.080;7.634;2023-04-02T12:38:28;22.10;1.00
9943;DHT22;5010;45.080;7.634;2023-04-02T12:40:56;22.10;1.00
9943;DHT22;5010;45.080;7.634;2023-04-02T12:43:30;22.10;1.00
9943;DHT22;5010;45.080;7.634;2023-04-02T12:45:59;22.10;1.00
9943;DHT22;5010;45.080;7.634;2023-04-02T12:48:27;22.20;1.00
9943;DHT22;5010;45.080;7.634;2023-04-02T12:50:54;22.20;1.00
9943;DHT22;5010;45.080;7.634;2023-04-02T12:53:24;22.20;1.00
9943;DHT22;5010;45.080;7.634;2023-04-02T12:55:53;22.10;1.00
9943;DHT22;5010;45.080;7.634;2023-04-02T12:58:33;22.10;1.00
9943;DHT22;5010;45.080;7.634;2023-04-02T13:01:14;22.10;1.00
9943;DHT22;5010;45.080;7.634;2023-04-02T13:03:42;22.10;1.00
9943;DHT22;5010;45.080;7.634;2023-04-02T13:06:21;22.10;1.00
9943;DHT22;5010;45.080;7.634;2023-04-02T13:08:51;22.10;1.00
9943;DHT22;5010;45.080;7.634;2023-04-02T13:11:18;22.10;1.00
9943;DHT22;5010;45.080;7.634;2023-04-02T13:13:47;22.00;1.00
9943;DHT22;5010;45.080;7.634;2023-04-02T13:16:26;22.10;1.00
9943;DHT22;5010;45.080;7.634;2023-04-02T13:19:22;22.10;1.00
9943;DHT22;5010;45.080;7.634;2023-04-02T13:21:49;22.00;1.00
9943;DHT22;5010;45.080;7.634;2023-04-02T13:24:18;22.00;1.00
9943;DHT22;5010;45.080;7.634;2023-04-02T13:26:46;22.00;1.00
9943;DHT22;5010;45.080;7.634;2023-04-02T13:29:24;22.00;1.00
9943;DHT22;5010;45.080;7.634;2023-04-02T13:31:53;22.00;1.00
9943;DHT22;5010;45.080;7.634;2023-04-02T13:34:20;22.00;1.00
9943;DHT22;5010;45.080;7.634;2023-04-02T13:36:47;21.90;1.00
9943;DHT22;5010;45.080;7.634;2023-04-02T13:39:14;21.90;1.00
9943;DHT22;5010;45.080;7.634;2023-04-02T13:41:43;22.00;1.00
9943;DHT22;5010;45.080;7.634;2023-04-02T13:44:19;21.90;1.00
9943;DHT22;5010;45.080;7.634;2023-04-02T13:46:47;21.90;1.00
9943;DHT22;5010;45.080;7.634;2023-04-02T13:49:14;22.00;1.00
9943;DHT22;5010;45.080;7.634;2023-04-02T13:51:43;21.90;1.00
9943;DHT22;5010;45.080;7.634;2023-04-02T13:54:16;21.90;1.00
9943;DHT22;5010;45.080;7.634;2023-04-02T13:56:44;21.90;1.00
9943;DHT22;5010;45.080;7.634;2023-04-02T13:59:12;21.90;1.00
9943;DHT22;5010;45.080;7.634;2023-04-02T14:01:43;21.90;1.00
9943;DHT22;5010;45.080;7.634;2023-04-02T14:04:14;22.00;1.00
9943;DHT22;5010;45.080;7.634;2023-04-02T14:09:52;21.90;1.00
9943;DHT22;5010;45.080;7.634;2023-04-02T14:12:33;21.90;1.00
9943;DHT22;5010;45.080;7.634;2023-04-02T14:15:17;21.90;1.00
9943;DHT22;5010;45.080;7.634;2023-04-02T14:18:06;22.00;1.00
9943;DHT22;5010;45.080;7.634;2023-04-02T14:20:43;21.90;1.00
9943;DHT22;5010;45.080;7.634;2023-04-02T14:23:24;22.00;1.00
9943;DHT22;5010;45.080;7.634;2023-04-02T14:26:01;21.90;1.00
9943;DHT22;5010;45.080;7.634;2023-04-02T14:28:35;21.90;1.00
9943;DHT22;5010;45.080;7.634;2023-04-02T14:31:14;21.90;1.00
9943;DHT22;5010;45.080;7.634;2023-04-02T14:33:51;21.90;1.00
9943;DHT22;5010;45.080;7.634;2023-04-02T14:36:28;21.90;1.00
9943;DHT22;5010;45.080;7.634;2023-04-02T14:39:04;21.90;1.00
9943;DHT22;5010;45.080;7.634;2023-04-02T14:41:37;21.90;1.00
9943;DHT22;5010;45.080;7.634;2023-04-02T14:44:08;21.90;1.00
9943;DHT22;5010;45.080;7.634;2023-04-02T14:46:37;21.90;1.00
9943;DHT22;5010;45.080;7.634;2023-04-02T14:49:20;21.90;1.00
9943;DHT22;5010;45.080;7.634;2023-04-02T14:51:51;21.90;1.00
9943;DHT22;5010;45.080;7.634;2023-04-02T14:54:25;21.90;1.00
9943;DHT22;5010;45.080;7.634;2023-04-02T14:56:57;21.90;1.00
9943;DHT22;5010;45.080;7.634;2023-04-02T14:59:29;21.90;1.00
9943;DHT22;5010;45.080;7.634;2023-04-02T15:02:02;21.90;1.00
9943;DHT22;5010;45.080;7.634;2023-04-02T15:04:33;21.90;1.00
9943;DHT22;5010;45.080;7.634;2023-04-02T15:07:05;21.90;1.00
9943;DHT22;5010;45.080;7.634;2023-04-02T15:09:39;21.90;1.00
9943;DHT22;5010;45.080;7.634;2023-04-02T15:12:11;21.90;1.00
9943;DHT22;5010;45.080;7.634;2023-04-02T15:14:45;21.90;1.00
9943;DHT22;5010;45.080;7.634;2023-04-02T15:17:13;21.90;1.00
9943;DHT22;5010;45.080;7.634;2023-04-02T15:19:41;21.90;1.00
9943;DHT22;5010;45.080;7.634;2023-04-02T15:22:19;21.90;1.00
9943;DHT22;5010;45.080;7.634;2023-04-02T15:24:58;21.90;1.00
9943;DHT22;5010;45.080;7.634;2023-04-02T15:27:39;21.90;1.00
9943;DHT22;5010;45.080;7.634;2023-04-02T15:30:12;21.90;1.00
9943;DHT22;5010;45.080;7.634;2023-04-02T15:32:42;21.80;1.00
9943;DHT22;5010;45.080;7.634;2023-04-02T15:35:20;21.80;1.00
9943;DHT22;5010;45.080;7.634;2023-04-02T15:37:56;21.80;1.00
9943;DHT22;5010;45.080;7.634;2023-04-02T15:40:48;21.80;1.00
9943;DHT22;5010;45.080;7.634;2023-04-02T15:43:21;21.80;1.00
9943;DHT22;5010;45.080;7.634;2023-04-02T15:46:04;21.80;1.00
9943;DHT22;5010;45.080;7.634;2023-04-02T15:49:01;21.80;1.00
9943;DHT22;5010;45.080;7.634;2023-04-02T15:51:42;21.70;1.00
9943;DHT22;5010;45.080;7.634;2023-04-02T15:54:18;21.70;1.00
9943;DHT22;5010;45.080;7.634;2023-04-02T15:56:53;21.70;1.00
9943;DHT22;5010;45.080;7.634;2023-04-02T15:59:34;21.70;1.00
9943;DHT22;5010;45.080;7.634;2023-04-02T16:05:20;21.60;1.00
9943;DHT22;5010;45.080;7.634;2023-04-02T16:10:44;21.60;1.00
9943;DHT22;5010;45.080;7.634;2023-04-02T16:13:16;21.60;1.00
9943;DHT22;5010;45.080;7.634;2023-04-02T16:15:48;21.60;1.00
9943;DHT22;5010;45.080;7.634;2023-04-02T16:18:23;21.60;1.00
9943;DHT22;5010;45.080;7.634;2023-04-02T16:20:53;21.60;1.00
9943;DHT22;5010;45.080;7.634;2023-04-02T16:23:28;21.60;1.00
9943;DHT22;5010;45.080;7.634;2023-04-02T16:26:01;21.60;1.00
9943;DHT22;5010;45.080;7.634;2023-04-02T16:28:33;21.50;1.00
9943;DHT22;5010;45.080;7.634;2023-04-02T16:31:07;21.50;1.00
9943;DHT22;5010;45.080;7.634;2023-04-02T16:33:44;21.50;1.00
9943;DHT22;5010;45.080;7.634;2023-04-02T16:36:24;21.50;1.00
9943;DHT22;5010;45.080;7.634;2023-04-02T16:39:02;21.50;1.00
9943;DHT22;5010;45.080;7.634;2023-04-02T16:41:41;21.50;1.00
9943;DHT22;5010;45.080;7.634;2023-04-02T16:44:23;21.50;1.00
9943;DHT22;5010;45.080;7.634;2023-04-02T16:47:03;21.50;1.00
9943;DHT22;5010;45.080;7.634;2023-04-02T16:49:42;21.50;1.00
9943;DHT22;5010;45.080;7.634;2023-04-02T16:52:33;21.50;1.00
9943;DHT22;5010;45.080;7.634;2023-04-02T16:55:14;21.40;1.00
9943;DHT22;5010;45.080;7.634;2023-04-02T16:57:49;21.50;1.00
9943;DHT22;5010;45.080;7.634;2023-04-02T17:00:23;21.40;1.00
9943;DHT22;5010;45.080;7.634;2023-04-02T17:03:00;21.50;1.00
9943;DHT22;5010;45.080;7.634;2023-04-02T17:05:32;21.40;1.00
9943;DHT22;5010;45.080;7.634;2023-04-02T17:08:20;21.40;1.00
9943;DHT22;5010;45.080;7.634;2023-04-02T17:10:51;21.40;1.00
9943;DHT22;5010;45.080;7.634;2023-04-02T17:13:27;21.40;1.00